sensor_id;sensor_type;location;lat;lon;timestamp;P1;durP1;ratioP1;P2;durP2;ratioP2
27505;SDS011;14939;43.596;1.320;2023-04-03T00:02:07;13.05;;;5.57;;
27505;SDS011;14939;43.596;1.320;2023-04-03T00:04:32;10.13;;;5.53;;
27505;SDS011;14939;43.596;1.320;2023-04-03T00:06:58;11.32;;;5.40;;
27505;SDS011;14939;43.596;1.320;2023-04-03T00:09:24;11.55;;;5.65;;
27505;SDS011;14939;43.596;1.320;2023-04-03T00:11:50;11.75;;;5.25;;
27505;SDS011;14939;43.596;1.320;2023-04-03T00:14:15;7.88;;;5.40;;
27505;SDS011;14939;43.596;1.320;2023-04-03T00:16:41;12.63;;;6.03;;
27505;SDS011;14939;43.596;1.320;2023-04-03T00:19:07;12.05;;;5.57;;
27505;SDS011;14939;43.596;1.320;2023-04-03T00:21:33;9.52;;;5.57;;
27505;SDS011;14939;43.596;1.320;2023-04-03T00:23:59;10.82;;;5.88;;
27505;SDS011;14939;43.596;1.320;2023-04-03T00:26:25;9.63;;;5.40;;
27505;SDS011;14939;43.596;1.320;2023-04-03T00:28:50;11.38;;;5.72;;
27505;SDS011;14939;43.596;1.320;2023-04-03T00:31:17;9.52;;;5.65;;
27505;SDS011;14939;43.596;1.320;2023-04-03T00:33:43;10.82;;;5.32;;
27505;SDS011;14939;43.596;1.320;2023-04-03T00:36:09;7.45;;;5.30;;
27505;SDS011;14939;43.596;1.320;2023-04-03T00:38:36;11.73;;;5.40;;
27505;SDS011;14939;43.596;1.320;2023-04-03T00:41:02;8.00;;;5.50;;
27505;SDS011;14939;43.596;1.320;2023-04-03T00:43:28;13.90;;;5.60;;
27505;SDS011;14939;43.596;1.320;2023-04-03T00:45:55;12.77;;;5.75;;
27505;SDS011;14939;43.596;1.320;2023-04-03T00:48:32;9.25;;;5.25;;
27505;SDS011;14939;43.596;1.320;2023-04-03T00:50:58;10.98;;;5.70;;
27505;SDS011;14939;43.596;1.320;2023-04-03T00:53:31;11.13;;;6.32;;
27505;SDS011;14939;43.596;1.320;2023-04-03T00:56:02;10.60;;;5.32;;
27505;SDS011;14939;43.596;1.320;2023-04-03T00:58:37;8.90;;;5.28;;
27505;SDS011;14939;43.596;1.320;2023-04-03T01:01:16;6.87;;;4.60;;
27505;SDS011;14939;43.596;1.320;2023-04-03T01:03:46;10.60;;;5.18;;
27505;SDS011;14939;43.596;1.320;2023-04-03T01:06:12;7.50;;;5.22;;
27505;SDS011;14939;43.596;1.320;2023-04-03T01:08:41;11.30;;;5.05;;
27505;SDS011;14939;43.596;1.320;2023-04-03T01:11:07;7.10;;;5.07;;
27505;SDS011;14939;43.596;1.320;2023-04-03T01:13:33;9.55;;;5.53;;
27505;SDS011;14939;43.596;1.320;2023-04-03T01:16:02;11.73;;;5.65;;
27505;SDS011;14939;43.596;1.320;2023-04-03T01:18:30;9.70;;;5.75;;
27505;SDS011;14939;43.596;1.320;2023-04-03T01:23:54;8.85;;;5.28;;
27505;SDS011;14939;43.596;1.320;2023-04-03T01:26:25;7.97;;;5.72;;
27505;SDS011;14939;43.596;1.320;2023-04-03T01:28:51;9.85;;;5.57;;
27505;SDS011;14939;43.596;1.320;2023-04-03T01:31:54;13.55;;;6.57;;
27505;SDS011;14939;43.596;1.320;2023-04-03T01:34:11;11.70;;;6.23;;
27505;SDS011;14939;43.596;1.320;2023-04-03T01:36:37;15.05;;;5.90;;
27505;SDS011;14939;43.596;1.320;2023-04-03T01:39:03;11.65;;;6.70;;
27505;SDS011;14939;43.596;1.320;2023-04-03T01:41:28;11.15;;;6.35;;
27505;SDS011;14939;43.596;1.320;2023-04-03T01:43:54;9.52;;;6.57;;
27505;SDS011;14939;43.596;1.320;2023-04-03T01:46:21;10.65;;;6.00;;
27505;SDS011;14939;43.596;1.320;2023-04-03T01:48:46;12.43;;;6.80;;
27505;SDS011;14939;43.596;1.320;2023-04-03T01:51:12;11.00;;;6.97;;
27505;SDS011;14939;43.596;1.320;2023-04-03T01:53:38;11.77;;;6.72;;
27505;SDS011;14939;43.596;1.320;2023-04-03T01:56:04;10.57;;;7.38;;
27505;SDS011;14939;43.596;1.320;2023-04-03T01:58:30;10.40;;;6.50;;
27505;SDS011;14939;43.596;1.320;2023-04-03T02:00:56;9.80;;;6.97;;
27505;SDS011;14939;43.596;1.320;2023-04-03T02:03:22;11.15;;;7.07;;
27505;SDS011;14939;43.596;1.320;2023-04-03T02:05:49;13.32;;;6.95;;
27505;SDS011;14939;43.596;1.320;2023-04-03T02:08:15;13.57;;;7.05;;
27505;SDS011;14939;43.596;1.320;2023-04-03T02:10:43;16.05;;;7.97;;
27505;SDS011;14939;43.596;1.320;2023-04-03T02:13:10;12.32;;;7.30;;
27505;SDS011;14939;43.596;1.320;2023-04-03T02:15:37;13.13;;;7.55;;
27505;SDS011;14939;43.596;1.320;2023-04-03T02:18:04;14.43;;;7.57;;
27505;SDS011;14939;43.596;1.320;2023-04-03T02:20:30;11.68;;;7.47;;
27505;SDS011;14939;43.596;1.320;2023-04-03T02:22:56;13.85;;;7.70;;
27505;SDS011;14939;43.596;1.320;2023-04-03T02:25:21;14.80;;;7.88;;
27505;SDS011;14939;43.596;1.320;2023-04-03T02:27:47;14.57;;;7.20;;
27505;SDS011;14939;43.596;1.320;2023-04-03T02:30:13;13.68;;;7.57;;
27505;SDS011;14939;43.596;1.320;2023-04-03T02:32:40;12.27;;;7.10;;
27505;SDS011;14939;43.596;1.320;2023-04-03T02:35:06;8.68;;;6.90;;
27505;SDS011;14939;43.596;1.320;2023-04-03T02:37:32;13.77;;;7.47;;
27505;SDS011;14939;43.596;1.320;2023-04-03T02:39:57;16.40;;;7.75;;
27505;SDS011;14939;43.596;1.320;2023-04-03T02:42:23;12.27;;;7.68;;
27505;SDS011;14939;43.596;1.320;2023-04-03T02:44:49;10.98;;;7.80;;
27505;SDS011;14939;43.596;1.320;2023-04-03T02:47:14;13.73;;;8.75;;
27505;SDS011;14939;43.596;1.320;2023-04-03T02:49:40;14.45;;;8.05;;
27505;SDS011;14939;43.596;1.320;2023-04-03T02:52:08;13.00;;;8.38;;
27505;SDS011;14939;43.596;1.320;2023-04-03T02:54:34;12.73;;;7.80;;
27505;SDS011;14939;43.596;1.320;2023-04-03T02:57:00;12.50;;;8.10;;
27505;SDS011;14939;43.596;1.320;2023-04-03T02:59:26;12.73;;;7.95;;
27505;SDS011;14939;43.596;1.320;2023-04-03T03:01:52;14.32;;;7.95;;
27505;SDS011;14939;43.596;1.320;2023-04-03T03:04:17;13.40;;;8.38;;
27505;SDS011;14939;43.596;1.320;2023-04-03T03:06:43;12.43;;;8.45;;
27505;SDS011;14939;43.596;1.320;2023-04-03T03:09:09;10.15;;;8.35;;
27505;SDS011;14939;43.596;1.320;2023-04-03T03:11:35;12.48;;;8.13;;
27505;SDS011;14939;43.596;1.320;2023-04-03T03:14:01;12.45;;;8.95;;
27505;SDS011;14939;43.596;1.320;2023-04-03T03:16:26;16.05;;;8.48;;
27505;SDS011;14939;43.596;1.320;2023-04-03T03:18:52;13.68;;;8.48;;
27505;SDS011;14939;43.596;1.320;2023-04-03T03:21:18;14.68;;;8.68;;
27505;SDS011;14939;43.596;1.320;2023-04-03T03:23:43;12.48;;;8.60;;
27505;SDS011;14939;43.596;1.320;2023-04-03T03:26:10;18.00;;;9.02;;
27505;SDS011;14939;43.596;1.320;2023-04-03T03:28:36;10.77;;;7.90;;
27505;SDS011;14939;43.596;1.320;2023-04-03T03:31:04;11.82;;;8.48;;
27505;SDS011;14939;43.596;1.320;2023-04-03T03:33:30;14.73;;;8.43;;
27505;SDS011;14939;43.596;1.320;2023-04-03T03:35:56;11.50;;;8.27;;
27505;SDS011;14939;43.596;1.320;2023-04-03T03:38:22;12.43;;;8.55;;
27505;SDS011;14939;43.596;1.320;2023-04-03T03:40:48;13.68;;;8.18;;
27505;SDS011;14939;43.596;1.320;2023-04-03T03:43:15;11.48;;;8.38;;
27505;SDS011;14939;43.596;1.320;2023-04-03T03:45:41;9.68;;;8.30;;
27505;SDS011;14939;43.596;1.320;2023-04-03T03:48:07;14.05;;;8.43;;
27505;SDS011;14939;43.596;1.320;2023-04-03T03:50:33;17.27;;;10.88;;
27505;SDS011;14939;43.596;1.320;2023-04-03T03:52:59;16.92;;;10.32;;
27505;SDS011;14939;43.596;1.320;2023-04-03T03:55:25;12.25;;;9.15;;
27505;SDS011;14939;43.596;1.320;2023-04-03T03:57:51;14.40;;;8.70;;
27505;SDS011;14939;43.596;1.320;2023-04-03T04:00:16;12.23;;;8.95;;
27505;SDS011;14939;43.596;1.320;2023-04-03T04:02:43;11.70;;;9.13;;
27505;SDS011;14939;43.596;1.320;2023-04-03T04:05:09;12.13;;;8.45;;
27505;SDS011;14939;43.596;1.320;2023-04-03T04:07:34;12.95;;;8.30;;
27505;SDS011;14939;43.596;1.320;2023-04-03T04:10:00;12.38;;;8.45;;
27505;SDS011;14939;43.596;1.320;2023-04-03T04:12:26;9.95;;;8.00;;
27505;SDS011;14939;43.596;1.320;2023-04-03T04:14:52;13.40;;;8.00;;
27505;SDS011;14939;43.596;1.320;2023-04-03T04:17:17;13.23;;;8.00;;
27505;SDS011;14939;43.596;1.320;2023-04-03T04:19:43;9.55;;;8.00;;
27505;SDS011;14939;43.596;1.320;2023-04-03T04:22:08;13.52;;;8.50;;
27505;SDS011;14939;43.596;1.320;2023-04-03T04:24:34;13.07;;;8.43;;
27505;SDS011;14939;43.596;1.320;2023-04-03T04:27:00;13.00;;;8.60;;
27505;SDS011;14939;43.596;1.320;2023-04-03T04:29:25;13.43;;;8.75;;
27505;SDS011;14939;43.596;1.320;2023-04-03T04:31:51;12.80;;;8.77;;
27505;SDS011;14939;43.596;1.320;2023-04-03T04:34:17;12.77;;;8.98;;
27505;SDS011;14939;43.596;1.320;2023-04-03T04:36:42;10.82;;;8.52;;
27505;SDS011;14939;43.596;1.320;2023-04-03T04:39:08;12.75;;;8.68;;
27505;SDS011;14939;43.596;1.320;2023-04-03T04:41:34;15.55;;;8.55;;
27505;SDS011;14939;43.596;1.320;2023-04-03T04:44:00;12.50;;;8.40;;
27505;SDS011;14939;43.596;1.320;2023-04-03T04:46:25;15.63;;;8.63;;
27505;SDS011;14939;43.596;1.320;2023-04-03T04:48:51;14.50;;;8.70;;
27505;SDS011;14939;43.596;1.320;2023-04-03T04:51:17;12.27;;;9.50;;
27505;SDS011;14939;43.596;1.320;2023-04-03T04:53:43;13.77;;;9.90;;
27505;SDS011;14939;43.596;1.320;2023-04-03T04:56:15;14.18;;;9.32;;
27505;SDS011;14939;43.596;1.320;2023-04-03T04:58:59;15.23;;;9.57;;
27505;SDS011;14939;43.596;1.320;2023-04-03T05:01:25;11.65;;;9.00;;
27505;SDS011;14939;43.596;1.320;2023-04-03T05:03:51;12.85;;;8.95;;
27505;SDS011;14939;43.596;1.320;2023-04-03T05:06:17;14.07;;;9.70;;
27505;SDS011;14939;43.596;1.320;2023-04-03T05:08:42;16.98;;;9.82;;
27505;SDS011;14939;43.596;1.320;2023-04-03T05:11:09;14.50;;;9.73;;
27505;SDS011;14939;43.596;1.320;2023-04-03T05:13:34;11.50;;;9.65;;
27505;SDS011;14939;43.596;1.320;2023-04-03T05:16:00;13.18;;;9.85;;
27505;SDS011;14939;43.596;1.320;2023-04-03T05:18:26;13.68;;;9.98;;
27505;SDS011;14939;43.596;1.320;2023-04-03T05:20:51;14.02;;;9.52;;
27505;SDS011;14939;43.596;1.320;2023-04-03T05:23:17;13.27;;;9.75;;
27505;SDS011;14939;43.596;1.320;2023-04-03T05:25:43;14.18;;;9.63;;
27505;SDS011;14939;43.596;1.320;2023-04-03T05:28:10;15.05;;;9.65;;
27505;SDS011;14939;43.596;1.320;2023-04-03T05:30:36;13.77;;;9.43;;
27505;SDS011;14939;43.596;1.320;2023-04-03T05:33:02;14.30;;;9.65;;
27505;SDS011;14939;43.596;1.320;2023-04-03T05:35:28;17.55;;;9.63;;
27505;SDS011;14939;43.596;1.320;2023-04-03T05:37:54;14.05;;;9.30;;
27505;SDS011;14939;43.596;1.320;2023-04-03T05:40:20;13.05;;;8.82;;
27505;SDS011;14939;43.596;1.320;2023-04-03T05:42:46;14.00;;;9.98;;
27505;SDS011;14939;43.596;1.320;2023-04-03T05:45:13;13.35;;;9.70;;
27505;SDS011;14939;43.596;1.320;2023-04-03T05:47:41;13.68;;;10.27;;
27505;SDS011;14939;43.596;1.320;2023-04-03T05:50:13;13.07;;;9.40;;
27505;SDS011;14939;43.596;1.320;2023-04-03T05:52:40;14.20;;;9.85;;
27505;SDS011;14939;43.596;1.320;2023-04-03T05:55:10;14.88;;;10.20;;
27505;SDS011;14939;43.596;1.320;2023-04-03T05:57:36;12.63;;;9.00;;
27505;SDS011;14939;43.596;1.320;2023-04-03T06:00:03;17.02;;;10.65;;
27505;SDS011;14939;43.596;1.320;2023-04-03T06:02:31;13.77;;;9.10;;
27505;SDS011;14939;43.596;1.320;2023-04-03T06:04:56;14.60;;;10.27;;
27505;SDS011;14939;43.596;1.320;2023-04-03T06:07:23;16.20;;;9.88;;
27505;SDS011;14939;43.596;1.320;2023-04-03T06:09:53;12.77;;;9.68;;
27505;SDS011;14939;43.596;1.320;2023-04-03T06:12:22;11.43;;;8.98;;
27505;SDS011;14939;43.596;1.320;2023-04-03T06:14:48;16.13;;;8.85;;
27505;SDS011;14939;43.596;1.320;2023-04-03T06:17:17;13.07;;;9.13;;
27505;SDS011;14939;43.596;1.320;2023-04-03T06:19:43;12.40;;;8.15;;
27505;SDS011;14939;43.596;1.320;2023-04-03T06:22:09;14.65;;;8.90;;
27505;SDS011;14939;43.596;1.320;2023-04-03T06:24:36;12.20;;;8.90;;
27505;SDS011;14939;43.596;1.320;2023-04-03T06:27:03;11.60;;;8.07;;
27505;SDS011;14939;43.596;1.320;2023-04-03T06:29:29;16.23;;;9.48;;
27505;SDS011;14939;43.596;1.320;2023-04-03T06:31:55;15.60;;;10.07;;
27505;SDS011;14939;43.596;1.320;2023-04-03T06:34:21;18.20;;;10.05;;
27505;SDS011;14939;43.596;1.320;2023-04-03T06:36:47;11.73;;;8.68;;
27505;SDS011;14939;43.596;1.320;2023-04-03T06:39:20;14.10;;;9.25;;
27505;SDS011;14939;43.596;1.320;2023-04-03T06:41:47;11.90;;;8.23;;
27505;SDS011;14939;43.596;1.320;2023-04-03T06:44:13;15.55;;;9.15;;
27505;SDS011;14939;43.596;1.320;2023-04-03T06:46:41;13.43;;;10.02;;
27505;SDS011;14939;43.596;1.320;2023-04-03T06:49:08;12.98;;;8.75;;
27505;SDS011;14939;43.596;1.320;2023-04-03T06:51:34;11.73;;;7.63;;
27505;SDS011;14939;43.596;1.320;2023-04-03T06:54:02;14.48;;;8.02;;
27505;SDS011;14939;43.596;1.320;2023-04-03T06:56:29;16.15;;;9.52;;
27505;SDS011;14939;43.596;1.320;2023-04-03T06:58:55;13.48;;;9.18;;
27505;SDS011;14939;43.596;1.320;2023-04-03T07:01:23;15.68;;;9.43;;
27505;SDS011;14939;43.596;1.320;2023-04-03T07:03:51;13.40;;;8.27;;
27505;SDS011;14939;43.596;1.320;2023-04-03T07:06:17;13.55;;;7.78;;
27505;SDS011;14939;43.596;1.320;2023-04-03T07:08:45;9.40;;;7.35;;
27505;SDS011;14939;43.596;1.320;2023-04-03T07:11:11;10.10;;;7.50;;
27505;SDS011;14939;43.596;1.320;2023-04-03T07:13:38;12.13;;;6.70;;
27505;SDS011;14939;43.596;1.320;2023-04-03T07:16:04;9.45;;;7.30;;
27505;SDS011;14939;43.596;1.320;2023-04-03T07:18:31;12.65;;;7.63;;
27505;SDS011;14939;43.596;1.320;2023-04-03T07:20:57;14.13;;;8.05;;
27505;SDS011;14939;43.596;1.320;2023-04-03T07:23:23;10.98;;;7.80;;
27505;SDS011;14939;43.596;1.320;2023-04-03T07:25:49;10.57;;;7.65;;
27505;SDS011;14939;43.596;1.320;2023-04-03T07:28:17;10.13;;;7.97;;
27505;SDS011;14939;43.596;1.320;2023-04-03T07:30:45;11.13;;;7.03;;
27505;SDS011;14939;43.596;1.320;2023-04-03T07:33:13;10.98;;;6.93;;
27505;SDS011;14939;43.596;1.320;2023-04-03T07:35:40;14.10;;;9.02;;
27505;SDS011;14939;43.596;1.320;2023-04-03T07:38:06;13.40;;;8.00;;
27505;SDS011;14939;43.596;1.320;2023-04-03T07:40:32;9.73;;;6.28;;
27505;SDS011;14939;43.596;1.320;2023-04-03T07:42:58;12.60;;;7.30;;
27505;SDS011;14939;43.596;1.320;2023-04-03T07:45:24;10.63;;;6.78;;
27505;SDS011;14939;43.596;1.320;2023-04-03T07:47:50;8.52;;;6.57;;
27505;SDS011;14939;43.596;1.320;2023-04-03T07:50:17;11.27;;;6.57;;
27505;SDS011;14939;43.596;1.320;2023-04-03T07:52:43;12.80;;;6.47;;
27505;SDS011;14939;43.596;1.320;2023-04-03T07:55:09;10.07;;;6.75;;
27505;SDS011;14939;43.596;1.320;2023-04-03T07:57:35;10.60;;;6.53;;
27505;SDS011;14939;43.596;1.320;2023-04-03T08:00:01;12.07;;;6.30;;
27505;SDS011;14939;43.596;1.320;2023-04-03T08:02:28;13.13;;;6.65;;
27505;SDS011;14939;43.596;1.320;2023-04-03T08:04:53;10.57;;;6.72;;
27505;SDS011;14939;43.596;1.320;2023-04-03T08:07:20;10.40;;;5.25;;
27505;SDS011;14939;43.596;1.320;2023-04-03T08:09:45;11.20;;;5.35;;
27505;SDS011;14939;43.596;1.320;2023-04-03T08:12:11;9.13;;;5.18;;
27505;SDS011;14939;43.596;1.320;2023-04-03T08:14:37;8.73;;;5.82;;
27505;SDS011;14939;43.596;1.320;2023-04-03T08:17:03;11.27;;;5.78;;
27505;SDS011;14939;43.596;1.320;2023-04-03T08:19:30;8.73;;;5.13;;
27505;SDS011;14939;43.596;1.320;2023-04-03T08:21:56;7.45;;;5.28;;
27505;SDS011;14939;43.596;1.320;2023-04-03T08:24:23;10.38;;;5.15;;
27505;SDS011;14939;43.596;1.320;2023-04-03T08:26:50;9.98;;;5.35;;
27505;SDS011;14939;43.596;1.320;2023-04-03T08:29:16;10.00;;;5.60;;
27505;SDS011;14939;43.596;1.320;2023-04-03T08:31:42;11.45;;;6.65;;
27505;SDS011;14939;43.596;1.320;2023-04-03T08:34:07;9.18;;;4.97;;
27505;SDS011;14939;43.596;1.320;2023-04-03T08:36:33;8.80;;;4.70;;
27505;SDS011;14939;43.596;1.320;2023-04-03T08:38:59;8.45;;;4.80;;
27505;SDS011;14939;43.596;1.320;2023-04-03T08:41:33;9.73;;;5.38;;
27505;SDS011;14939;43.596;1.320;2023-04-03T08:49:45;10.02;;;4.70;;
27505;SDS011;14939;43.596;1.320;2023-04-03T08:55:01;8.15;;;4.90;;
27505;SDS011;14939;43.596;1.320;2023-04-03T08:57:31;8.77;;;5.20;;
27505;SDS011;14939;43.596;1.320;2023-04-03T09:00:01;11.57;;;5.28;;
27505;SDS011;14939;43.596;1.320;2023-04-03T09:05:14;8.43;;;4.63;;
27505;SDS011;14939;43.596;1.320;2023-04-03T09:08:01;11.93;;;4.88;;
27505;SDS011;14939;43.596;1.320;2023-04-03T09:10:43;6.65;;;4.18;;
27505;SDS011;14939;43.596;1.320;2023-04-03T09:15:48;6.43;;;3.80;;
27505;SDS011;14939;43.596;1.320;2023-04-03T09:18:21;12.55;;;3.83;;
27505;SDS011;14939;43.596;1.320;2023-04-03T09:21:01;6.93;;;3.47;;
27505;SDS011;14939;43.596;1.320;2023-04-03T09:23:50;7.57;;;3.75;;
27505;SDS011;14939;43.596;1.320;2023-04-03T09:28:51;9.25;;;4.80;;
27505;SDS011;14939;43.596;1.320;2023-04-03T09:31:20;6.50;;;3.42;;
27505;SDS011;14939;43.596;1.320;2023-04-03T09:33:50;7.07;;;3.95;;
27505;SDS011;14939;43.596;1.320;2023-04-03T09:39:25;8.57;;;3.10;;
27505;SDS011;14939;43.596;1.320;2023-04-03T09:44:30;9.43;;;3.50;;
27505;SDS011;14939;43.596;1.320;2023-04-03T09:46:58;6.68;;;3.72;;
27505;SDS011;14939;43.596;1.320;2023-04-03T09:49:25;7.20;;;3.50;;
27505;SDS011;14939;43.596;1.320;2023-04-03T09:51:51;6.10;;;3.42;;
27505;SDS011;14939;43.596;1.320;2023-04-03T09:57:09;6.53;;;2.60;;
27505;SDS011;14939;43.596;1.320;2023-04-03T10:04:56;4.13;;;2.67;;
27505;SDS011;14939;43.596;1.320;2023-04-03T10:07:40;7.07;;;3.00;;
27505;SDS011;14939;43.596;1.320;2023-04-03T10:12:47;8.00;;;2.97;;
27505;SDS011;14939;43.596;1.320;2023-04-03T10:15:15;4.03;;;2.45;;
27505;SDS011;14939;43.596;1.320;2023-04-03T10:36:35;2.75;;;1.80;;
27505;SDS011;14939;43.596;1.320;2023-04-03T10:45:03;3.40;;;2.00;;
27505;SDS011;14939;43.596;1.320;2023-04-03T10:58:29;6.22;;;2.67;;
27505;SDS011;14939;43.596;1.320;2023-04-03T11:01:02;6.10;;;2.70;;
27505;SDS011;14939;43.596;1.320;2023-04-03T11:03:41;10.05;;;4.47;;
27505;SDS011;14939;43.596;1.320;2023-04-03T11:06:20;7.00;;;3.53;;
27505;SDS011;14939;43.596;1.320;2023-04-03T11:08:50;4.88;;;2.42;;
27505;SDS011;14939;43.596;1.320;2023-04-03T11:11:30;4.78;;;2.28;;
27505;SDS011;14939;43.596;1.320;2023-04-03T11:19:52;5.05;;;2.67;;
27505;SDS011;14939;43.596;1.320;2023-04-03T11:22:31;4.78;;;2.60;;
27505;SDS011;14939;43.596;1.320;2023-04-03T11:27:46;5.85;;;3.00;;
27505;SDS011;14939;43.596;1.320;2023-04-03T11:30:22;5.90;;;2.90;;
27505;SDS011;14939;43.596;1.320;2023-04-03T11:35:37;4.88;;;3.03;;
27505;SDS011;14939;43.596;1.320;2023-04-03T11:38:10;9.35;;;3.47;;
27505;SDS011;14939;43.596;1.320;2023-04-03T11:40:44;7.38;;;3.55;;
27505;SDS011;14939;43.596;1.320;2023-04-03T11:43:20;4.32;;;2.70;;
27505;SDS011;14939;43.596;1.320;2023-04-03T11:45:58;3.70;;;2.80;;
27505;SDS011;14939;43.596;1.320;2023-04-03T11:50:57;7.13;;;2.80;;
27505;SDS011;14939;43.596;1.320;2023-04-03T12:01:51;4.72;;;2.78;;
27505;SDS011;14939;43.596;1.320;2023-04-03T12:04:24;4.57;;;2.33;;
27505;SDS011;14939;43.596;1.320;2023-04-03T12:06:53;4.40;;;2.60;;
27505;SDS011;14939;43.596;1.320;2023-04-03T12:09:56;7.50;;;2.78;;
27505;SDS011;14939;43.596;1.320;2023-04-03T12:12:30;8.57;;;2.88;;
27505;SDS011;14939;43.596;1.320;2023-04-03T12:17:52;6.43;;;2.25;;
27505;SDS011;14939;43.596;1.320;2023-04-03T12:23:55;5.88;;;2.20;;
27505;SDS011;14939;43.596;1.320;2023-04-03T12:29:13;5.43;;;2.22;;
27505;SDS011;14939;43.596;1.320;2023-04-03T12:32:04;4.80;;;2.50;;
27505;SDS011;14939;43.596;1.320;2023-04-03T12:40:34;4.10;;;2.40;;
27505;SDS011;14939;43.596;1.320;2023-04-03T12:46:15;4.35;;;2.03;;
27505;SDS011;14939;43.596;1.320;2023-04-03T12:48:55;4.68;;;2.20;;
27505;SDS011;14939;43.596;1.320;2023-04-03T12:53:58;5.07;;;2.42;;
27505;SDS011;14939;43.596;1.320;2023-04-03T12:56:31;4.15;;;1.92;;
27505;SDS011;14939;43.596;1.320;2023-04-03T12:59:19;5.47;;;2.30;;
27505;SDS011;14939;43.596;1.320;2023-04-03T13:01:54;4.95;;;2.45;;
27505;SDS011;14939;43.596;1.320;2023-04-03T13:04:25;5.82;;;2.03;;
27505;SDS011;14939;43.596;1.320;2023-04-03T13:06:52;5.00;;;1.75;;
27505;SDS011;14939;43.596;1.320;2023-04-03T13:11:56;3.67;;;1.92;;
27505;SDS011;14939;43.596;1.320;2023-04-03T13:14:24;4.93;;;1.80;;
27505;SDS011;14939;43.596;1.320;2023-04-03T13:19:22;4.88;;;1.98;;
27505;SDS011;14939;43.596;1.320;2023-04-03T13:21:50;5.32;;;1.75;;
27505;SDS011;14939;43.596;1.320;2023-04-03T13:24:26;5.50;;;1.85;;
27505;SDS011;14939;43.596;1.320;2023-04-03T13:26:54;4.53;;;1.75;;
27505;SDS011;14939;43.596;1.320;2023-04-03T13:29:38;5.55;;;1.88;;
27505;SDS011;14939;43.596;1.320;2023-04-03T13:32:04;4.40;;;2.30;;
27505;SDS011;14939;43.596;1.320;2023-04-03T13:34:37;5.63;;;2.33;;
27505;SDS011;14939;43.596;1.320;2023-04-03T13:37:06;6.75;;;2.03;;
27505;SDS011;14939;43.596;1.320;2023-04-03T13:39:43;7.35;;;2.38;;
27505;SDS011;14939;43.596;1.320;2023-04-03T13:42:20;4.35;;;2.08;;
27505;SDS011;14939;43.596;1.320;2023-04-03T13:44:48;5.15;;;2.40;;
27505;SDS011;14939;43.596;1.320;2023-04-03T13:47:37;4.72;;;1.88;;
27505;SDS011;14939;43.596;1.320;2023-04-03T13:50:25;6.20;;;2.63;;
27505;SDS011;14939;43.596;1.320;2023-04-03T13:58:01;2.78;;;1.90;;
27505;SDS011;14939;43.596;1.320;2023-04-03T14:02:59;5.97;;;2.20;;
27505;SDS011;14939;43.596;1.320;2023-04-03T14:05:25;5.55;;;1.80;;
27505;SDS011;14939;43.596;1.320;2023-04-03T14:07:52;4.47;;;2.08;;
27505;SDS011;14939;43.596;1.320;2023-04-03T14:10:18;4.25;;;2.33;;
27505;SDS011;14939;43.596;1.320;2023-04-03T14:12:45;4.57;;;2.10;;
27505;SDS011;14939;43.596;1.320;2023-04-03T14:15:22;6.97;;;2.28;;
27505;SDS011;14939;43.596;1.320;2023-04-03T14:17:51;5.25;;;1.92;;
27505;SDS011;14939;43.596;1.320;2023-04-03T14:20:18;5.72;;;2.50;;
27505;SDS011;14939;43.596;1.320;2023-04-03T14:22:46;4.80;;;2.08;;
27505;SDS011;14939;43.596;1.320;2023-04-03T14:25:13;6.82;;;2.30;;
27505;SDS011;14939;43.596;1.320;2023-04-03T14:27:45;5.95;;;2.42;;
27505;SDS011;14939;43.596;1.320;2023-04-03T14:30:18;5.88;;;2.30;;
27505;SDS011;14939;43.596;1.320;2023-04-03T14:32:49;6.43;;;2.17;;
27505;SDS011;14939;43.596;1.320;2023-04-03T14:35:15;4.32;;;2.20;;
27505;SDS011;14939;43.596;1.320;2023-04-03T14:37:42;5.45;;;2.33;;
27505;SDS011;14939;43.596;1.320;2023-04-03T14:40:11;7.40;;;2.13;;
27505;SDS011;14939;43.596;1.320;2023-04-03T14:42:39;6.10;;;1.95;;
27505;SDS011;14939;43.596;1.320;2023-04-03T14:45:07;8.32;;;2.38;;
27505;SDS011;14939;43.596;1.320;2023-04-03T14:47:37;6.25;;;2.22;;
27505;SDS011;14939;43.596;1.320;2023-04-03T14:50:07;4.43;;;2.10;;
27505;SDS011;14939;43.596;1.320;2023-04-03T14:52:38;8.48;;;2.63;;
27505;SDS011;14939;43.596;1.320;2023-04-03T14:55:04;4.22;;;2.10;;
27505;SDS011;14939;43.596;1.320;2023-04-03T14:57:31;5.32;;;2.33;;
27505;SDS011;14939;43.596;1.320;2023-04-03T14:59:57;4.40;;;2.30;;
27505;SDS011;14939;43.596;1.320;2023-04-03T15:04:56;2.88;;;1.80;;
27505;SDS011;14939;43.596;1.320;2023-04-03T15:07:24;7.85;;;2.30;;
27505;SDS011;14939;43.596;1.320;2023-04-03T15:09:52;4.65;;;2.30;;
27505;SDS011;14939;43.596;1.320;2023-04-03T15:12:18;4.70;;;2.22;;
27505;SDS011;14939;43.596;1.320;2023-04-03T15:14:43;5.95;;;2.00;;
27505;SDS011;14939;43.596;1.320;2023-04-03T15:17:16;4.45;;;1.85;;
27505;SDS011;14939;43.596;1.320;2023-04-03T15:19:45;6.20;;;2.03;;
27505;SDS011;14939;43.596;1.320;2023-04-03T15:22:14;4.80;;;1.75;;
27505;SDS011;14939;43.596;1.320;2023-04-03T15:24:42;5.28;;;1.83;;
27505;SDS011;14939;43.596;1.320;2023-04-03T15:27:09;4.03;;;1.77;;
27505;SDS011;14939;43.596;1.320;2023-04-03T15:29:36;4.13;;;1.73;;
27505;SDS011;14939;43.596;1.320;2023-04-03T15:32:03;4.07;;;2.05;;
27505;SDS011;14939;43.596;1.320;2023-04-03T15:34:29;5.47;;;2.03;;
27505;SDS011;14939;43.596;1.320;2023-04-03T15:36:55;5.28;;;2.25;;
27505;SDS011;14939;43.596;1.320;2023-04-03T15:39:21;5.10;;;2.45;;
27505;SDS011;14939;43.596;1.320;2023-04-03T15:41:48;4.22;;;2.10;;
27505;SDS011;14939;43.596;1.320;2023-04-03T15:44:14;6.70;;;2.50;;
27505;SDS011;14939;43.596;1.320;2023-04-03T15:46:42;4.28;;;2.08;;
27505;SDS011;14939;43.596;1.320;2023-04-03T15:49:09;6.35;;;1.83;;
27505;SDS011;14939;43.596;1.320;2023-04-03T15:51:35;4.68;;;1.77;;
27505;SDS011;14939;43.596;1.320;2023-04-03T15:54:01;4.13;;;1.88;;
27505;SDS011;14939;43.596;1.320;2023-04-03T15:56:27;4.90;;;2.25;;
27505;SDS011;14939;43.596;1.320;2023-04-03T15:58:53;4.03;;;2.00;;
27505;SDS011;14939;43.596;1.320;2023-04-03T16:01:18;4.60;;;1.77;;
27505;SDS011;14939;43.596;1.320;2023-04-03T16:03:44;4.03;;;1.90;;
27505;SDS011;14939;43.596;1.320;2023-04-03T16:06:13;3.55;;;1.98;;
27505;SDS011;14939;43.596;1.320;2023-04-03T16:08:40;3.47;;;2.03;;
27505;SDS011;14939;43.596;1.320;2023-04-03T16:11:07;4.10;;;1.73;;
27505;SDS011;14939;43.596;1.320;2023-04-03T16:13:33;7.72;;;2.22;;
27505;SDS011;14939;43.596;1.320;2023-04-03T16:15:59;3.67;;;2.20;;
27505;SDS011;14939;43.596;1.320;2023-04-03T16:18:26;6.40;;;2.17;;
27505;SDS011;14939;43.596;1.320;2023-04-03T16:20:53;5.28;;;2.00;;
27505;SDS011;14939;43.596;1.320;2023-04-03T16:23:19;3.85;;;1.92;;
27505;SDS011;14939;43.596;1.320;2023-04-03T16:25:45;5.88;;;2.70;;
27505;SDS011;14939;43.596;1.320;2023-04-03T16:28:15;5.47;;;3.00;;
27505;SDS011;14939;43.596;1.320;2023-04-03T16:30:42;5.28;;;2.35;;
27505;SDS011;14939;43.596;1.320;2023-04-03T16:33:10;5.55;;;2.40;;
27505;SDS011;14939;43.596;1.320;2023-04-03T16:35:37;3.42;;;1.92;;
27505;SDS011;14939;43.596;1.320;2023-04-03T16:38:03;5.97;;;2.63;;
27505;SDS011;14939;43.596;1.320;2023-04-03T16:40:29;4.75;;;2.10;;
27505;SDS011;14939;43.596;1.320;2023-04-03T16:42:54;3.50;;;2.08;;
27505;SDS011;14939;43.596;1.320;2023-04-03T16:45:20;5.20;;;1.80;;
27505;SDS011;14939;43.596;1.320;2023-04-03T16:47:46;3.60;;;1.70;;
27505;SDS011;14939;43.596;1.320;2023-04-03T16:50:12;2.65;;;1.67;;
27505;SDS011;14939;43.596;1.320;2023-04-03T16:52:38;4.07;;;1.60;;
27505;SDS011;14939;43.596;1.320;2023-04-03T16:55:04;5.75;;;1.77;;
27505;SDS011;14939;43.596;1.320;2023-04-03T16:57:30;3.60;;;1.70;;